Time;durP1;ratioP1;P1;durP2;ratioP2;P2;SDS_P1;SDS_P2;PMS_P1;PMS_P2;Temp;Humidity;BMP_temperature;BMP_pressure;BME280_temperature;BME280_humidity;BME280_pressure;Samples;Min_cycle;Max_cycle;Signal;HPM_P1;HPM_P2
2023/05/24 00:00:28;;;;;;;1.00;0.98;;;20.50;67.70;;;;;;5048862;28;20056;-78
2023/05/24 00:02:56;;;;;;;0.70;0.70;;;20.50;67.50;;;;;;5048356;28;20056;-78
2023/05/24 00:05:22;;;;;;;1.13;0.80;;;20.50;67.50;;;;;;5046044;28;20495;-78
2023/05/24 00:07:48;;;;;;;1.15;0.90;;;20.50;67.50;;;;;;5050804;28;20049;-78
2023/05/24 00:10:13;;;;;;;0.73;0.70;;;20.50;67.50;;;;;;5049115;28;20464;-78
2023/05/24 00:12:39;;;;;;;2.20;1.20;;;20.50;67.50;;;;;;5009015;28;1171999;-78
2023/05/24 00:15:05;;;;;;;0.90;0.90;;;20.40;67.50;;;;;;5052733;28;20295;-78
2023/05/24 00:17:31;;;;;;;1.33;1.13;;;20.40;67.50;;;;;;5053263;28;20571;-78
2023/05/24 00:19:56;;;;;;;2.30;1.00;;;20.40;67.50;;;;;;5046707;28;20045;-78
2023/05/24 00:22:22;;;;;;;0.85;0.85;;;20.40;67.60;;;;;;5051966;28;20037;-78
2023/05/24 00:24:48;;;;;;;0.60;0.60;;;20.40;67.50;;;;;;5042423;28;20073;-78
2023/05/24 00:27:14;;;;;;;0.82;0.82;;;20.40;67.50;;;;;;5049650;28;20116;-78
2023/05/24 00:29:39;;;;;;;0.85;0.85;;;20.40;67.50;;;;;;5049358;28;20041;-78
2023/05/24 00:32:05;;;;;;;0.77;0.77;;;20.40;67.50;;;;;;5037231;28;20052;-78
2023/05/24 00:34:31;;;;;;;1.08;0.98;;;20.40;67.40;;;;;;5048912;28;20029;-78
2023/05/24 00:36:56;;;;;;;0.95;0.95;;;20.40;67.40;;;;;;5052996;28;20502;-78
2023/05/24 00:39:22;;;;;;;1.20;1.10;;;20.40;67.50;;;;;;5050579;28;20036;-78
2023/05/24 00:41:48;;;;;;;0.88;0.88;;;20.40;67.40;;;;;;5050284;28;20137;-78
2023/05/24 00:44:13;;;;;;;1.02;0.95;;;20.40;67.40;;;;;;5047430;28;20833;-77
2023/05/24 00:46:39;;;;;;;1.20;0.90;;;20.40;67.40;;;;;;5052395;28;20102;-77
2023/05/24 00:49:04;;;;;;;1.40;0.88;;;20.40;67.50;;;;;;5051944;28;20083;-78
2023/05/24 00:51:32;;;;;;;2.40;1.00;;;20.40;67.40;;;;;;5050141;28;20040;-78
2023/05/24 00:53:58;;;;;;;0.70;0.70;;;20.40;67.40;;;;;;5046699;28;20053;-78
2023/05/24 00:56:25;;;;;;;1.05;1.05;;;20.40;67.40;;;;;;5048364;28;20102;-78
2023/05/24 00:58:53;;;;;;;0.90;0.90;;;20.40;67.30;;;;;;5041238;28;20053;-78
2023/05/24 01:01:18;;;;;;;1.38;0.82;;;20.40;67.30;;;;;;5053565;28;20094;-78
2023/05/24 01:03:45;;;;;;;0.95;0.95;;;20.40;67.30;;;;;;5043598;28;20414;-78
2023/05/24 01:06:11;;;;;;;1.13;1.02;;;20.40;67.30;;;;;;5053273;28;20055;-78
2023/05/24 01:08:41;;;;;;;1.60;1.00;;;20.40;67.30;;;;;;5021560;28;20057;-78
2023/05/24 01:11:10;;;;;;;1.33;1.10;;;20.40;67.30;;;;;;5047480;28;20102;-78
2023/05/24 01:13:46;;;;;;;0.57;0.55;;;20.40;67.30;;;;;;5044658;28;20051;-78
2023/05/24 01:16:16;;;;;;;0.70;0.70;;;20.30;67.20;;;;;;5052341;28;20081;-78
2023/05/24 01:18:51;;;;;;;0.98;0.70;;;20.40;67.30;;;;;;5046863;28;20595;-78
2023/05/24 01:21:49;;;;;;;1.00;0.90;;;20.40;67.30;;;;;;5034390;28;20075;-78
2023/05/24 01:25:17;;;;;;;0.70;0.70;;;20.30;67.10;;;;;;5055005;28;20517;-78
2023/05/24 01:27:42;;;;;;;0.90;0.60;;;20.30;67.10;;;;;;4971006;28;20047;-78
2023/05/24 01:30:08;;;;;;;0.70;0.70;;;20.40;67.20;;;;;;4960132;28;20524;-78
2023/05/24 01:32:34;;;;;;;0.73;0.73;;;20.40;67.20;;;;;;4972386;28;20059;-77
2023/05/24 01:34:59;;;;;;;1.83;1.05;;;20.30;67.10;;;;;;4957569;28;20061;-77
2023/05/24 01:37:25;;;;;;;0.90;0.90;;;20.30;67.10;;;;;;4975095;28;20137;-77
2023/05/24 01:39:50;;;;;;;0.85;0.82;;;20.30;67.10;;;;;;4970593;28;20041;-78
2023/05/24 01:42:34;;;;;;;0.70;0.70;;;20.30;67.00;;;;;;4953439;28;20503;-78
2023/05/24 01:45:15;;;;;;;0.70;0.70;;;20.30;67.10;;;;;;4971573;28;20069;-78
2023/05/24 01:47:43;;;;;;;0.63;0.63;;;20.30;67.10;;;;;;4975002;28;20171;-78
2023/05/24 01:50:16;;;;;;;1.30;0.90;;;20.30;67.00;;;;;;4985579;28;20173;-78
2023/05/24 01:52:42;;;;;;;0.77;0.77;;;20.40;67.00;;;;;;4960087;28;20435;-78
2023/05/24 01:55:08;;;;;;;0.88;0.88;;;20.30;67.00;;;;;;4974535;28;20052;-78
2023/05/24 01:57:34;;;;;;;1.50;0.93;;;20.30;66.90;;;;;;4957411;28;20078;-78
2023/05/24 01:59:59;;;;;;;1.10;1.00;;;20.30;66.90;;;;;;4955785;28;20516;-78
2023/05/24 02:02:25;;;;;;;1.73;1.05;;;20.30;67.00;;;;;;5037573;28;20036;-78
2023/05/24 02:04:51;;;;;;;0.95;0.88;;;20.30;66.90;;;;;;5010005;28;20087;-77
2023/05/24 02:07:16;;;;;;;0.70;0.70;;;20.30;66.90;;;;;;5054457;28;20128;-78
2023/05/24 02:09:42;;;;;;;0.85;0.85;;;20.30;66.90;;;;;;5059207;28;20680;-78
2023/05/24 02:12:08;;;;;;;0.95;0.88;;;20.30;66.90;;;;;;5031115;28;20075;-78
2023/05/24 02:14:36;;;;;;;0.85;0.85;;;20.30;66.80;;;;;;5038183;28;20037;-78
2023/05/24 02:17:02;;;;;;;0.70;0.70;;;20.30;66.80;;;;;;5048125;28;20039;-78
2023/05/24 02:19:28;;;;;;;1.23;1.00;;;20.20;66.70;;;;;;5042161;28;20033;-78
2023/05/24 02:21:53;;;;;;;0.68;0.68;;;20.30;66.70;;;;;;5048945;28;20490;-77
2023/05/24 02:24:19;;;;;;;0.70;0.70;;;20.20;66.60;;;;;;5048452;28;20036;-77
2023/05/24 02:26:44;;;;;;;0.68;0.68;;;20.20;66.60;;;;;;5035318;28;20094;-77
2023/05/24 02:29:10;;;;;;;1.38;0.70;;;20.20;66.60;;;;;;5062507;28;20572;-77
2023/05/24 02:31:36;;;;;;;0.70;0.70;;;20.20;66.60;;;;;;5043779;28;20090;-77
2023/05/24 02:34:01;;;;;;;0.60;0.60;;;20.20;66.60;;;;;;5044488;28;20135;-77
2023/05/24 02:36:27;;;;;;;0.60;0.60;;;20.20;66.60;;;;;;5048728;28;20390;-78
2023/05/24 02:38:52;;;;;;;0.93;0.93;;;20.20;66.50;;;;;;5051071;28;20047;-77
2023/05/24 02:41:18;;;;;;;0.63;0.63;;;20.20;66.50;;;;;;5060279;28;20494;-78
2023/05/24 02:43:47;;;;;;;0.52;0.52;;;20.20;66.50;;;;;;5018552;28;20041;-78
2023/05/24 02:46:13;;;;;;;0.85;0.85;;;20.20;66.50;;;;;;5039868;28;20078;-78
2023/05/24 02:48:38;;;;;;;0.82;0.75;;;20.20;66.50;;;;;;5066802;28;20395;-78
2023/05/24 02:51:04;;;;;;;0.73;0.73;;;20.20;66.50;;;;;;5053064;28;20134;-77
2023/05/24 02:53:30;;;;;;;0.70;0.70;;;20.20;66.50;;;;;;5040351;28;20053;-77
2023/05/24 02:55:56;;;;;;;1.02;1.00;;;20.20;66.50;;;;;;5050831;28;20041;-77
2023/05/24 02:58:22;;;;;;;0.68;0.68;;;20.20;66.50;;;;;;5048935;28;20047;-77
2023/05/24 03:00:47;;;;;;;1.85;0.85;;;20.20;66.50;;;;;;5050519;28;20522;-78
2023/05/24 03:03:13;;;;;;;0.73;0.73;;;20.20;66.50;;;;;;5042365;28;20727;-77
2023/05/24 03:05:38;;;;;;;0.57;0.57;;;20.20;66.40;;;;;;5037262;28;20426;-78
2023/05/24 03:08:05;;;;;;;0.80;0.70;;;20.20;66.50;;;;;;5047343;28;20034;-78
2023/05/24 03:10:30;;;;;;;0.77;0.77;;;20.20;66.40;;;;;;5053305;28;20033;-78
2023/05/24 03:12:56;;;;;;;0.70;0.57;;;20.20;66.40;;;;;;5042955;28;20529;-78
2023/05/24 03:15:22;;;;;;;0.70;0.70;;;20.20;66.40;;;;;;5035588;28;20711;-78
2023/05/24 03:17:47;;;;;;;0.77;0.77;;;20.20;66.40;;;;;;5051457;28;20182;-77
2023/05/24 03:20:14;;;;;;;0.63;0.60;;;20.20;66.40;;;;;;5041240;28;20380;-78
2023/05/24 03:22:40;;;;;;;0.70;0.70;;;20.20;66.30;;;;;;5055821;28;20029;-78
2023/05/24 03:25:07;;;;;;;0.73;0.70;;;20.10;66.30;;;;;;5036960;28;20032;-78
2023/05/24 03:27:33;;;;;;;0.60;0.60;;;20.10;66.30;;;;;;5051314;28;20418;-78
2023/05/24 03:29:58;;;;;;;0.60;0.60;;;20.10;66.30;;;;;;5036073;28;20048;-78
2023/05/24 03:32:24;;;;;;;0.80;0.80;;;20.10;66.30;;;;;;5049205;28;20045;-78
2023/05/24 03:34:49;;;;;;;0.77;0.63;;;20.10;66.30;;;;;;5046488;28;20045;-77
2023/05/24 03:37:15;;;;;;;0.50;0.50;;;20.10;66.30;;;;;;5035879;28;20597;-78
2023/05/24 03:39:41;;;;;;;0.65;0.65;;;20.10;66.40;;;;;;5050477;28;20037;-78
2023/05/24 03:42:06;;;;;;;0.73;0.73;;;20.10;66.30;;;;;;5054138;28;20120;-78
2023/05/24 03:44:32;;;;;;;1.00;0.65;;;20.10;66.20;;;;;;5042510;28;20418;-78
2023/05/24 03:46:57;;;;;;;0.70;0.60;;;20.10;66.20;;;;;;5054220;28;20971;-77
2023/05/24 03:49:23;;;;;;;0.60;0.60;;;20.10;66.20;;;;;;5052883;28;20094;-77
2023/05/24 03:51:48;;;;;;;0.70;0.70;;;20.10;66.20;;;;;;5052863;28;20063;-77
2023/05/24 03:54:14;;;;;;;0.60;0.60;;;20.10;66.10;;;;;;5050138;28;20045;-78
2023/05/24 03:56:39;;;;;;;0.60;0.60;;;20.10;66.10;;;;;;5050640;28;20049;-78
2023/05/24 03:59:05;;;;;;;0.75;0.70;;;20.10;66.10;;;;;;5048549;28;20044;-78
2023/05/24 04:01:31;;;;;;;0.40;0.40;;;20.10;66.20;;;;;;5052808;28;20037;-78
2023/05/24 04:03:57;;;;;;;0.65;0.60;;;20.10;66.10;;;;;;5043730;28;20045;-78
2023/05/24 04:06:27;;;;;;;0.43;0.43;;;20.10;66.10;;;;;;5049213;28;20028;-77
2023/05/24 04:08:55;;;;;;;0.80;0.80;;;20.10;66.10;;;;;;5053109;28;20041;-77
2023/05/24 04:11:22;;;;;;;0.50;0.50;;;20.10;66.00;;;;;;5013499;28;20033;-77
2023/05/24 04:13:49;;;;;;;0.50;0.50;;;20.10;66.00;;;;;;5020234;28;20093;-78
2023/05/24 04:16:15;;;;;;;0.50;0.50;;;20.10;66.00;;;;;;5052059;28;20094;-77
2023/05/24 04:18:40;;;;;;;0.70;0.68;;;20.10;66.00;;;;;;5048672;28;20044;-77
2023/05/24 04:21:06;;;;;;;0.98;0.90;;;20.00;65.90;;;;;;5038843;28;20432;-78
2023/05/24 04:23:31;;;;;;;0.52;0.52;;;20.00;66.00;;;;;;5047859;28;20064;-78
2023/05/24 04:25:57;;;;;;;0.60;0.60;;;20.00;66.00;;;;;;5046824;28;20049;-77
2023/05/24 04:28:23;;;;;;;0.57;0.57;;;20.00;65.90;;;;;;5052058;28;20186;-78
2023/05/24 04:30:50;;;;;;;0.70;0.70;;;20.00;65.90;;;;;;5019963;28;20036;-78
2023/05/24 04:33:16;;;;;;;0.70;0.52;;;20.00;65.90;;;;;;5034931;28;20066;-78
2023/05/24 04:35:43;;;;;;;0.60;0.60;;;20.00;65.90;;;;;;5050045;28;20055;-78
2023/05/24 04:38:11;;;;;;;0.40;0.40;;;20.10;66.00;;;;;;5050014;28;20067;-78
2023/05/24 04:40:37;;;;;;;0.60;0.60;;;20.00;65.90;;;;;;5053230;28;20125;-78
2023/05/24 04:43:03;;;;;;;0.40;0.40;;;20.10;65.80;;;;;;5046441;28;20072;-77
2023/05/24 04:45:29;;;;;;;0.50;0.50;;;20.00;65.80;;;;;;5048563;28;20143;-78
2023/05/24 04:47:56;;;;;;;0.50;0.50;;;20.00;65.70;;;;;;5051959;28;20079;-78
2023/05/24 04:50:21;;;;;;;0.40;0.40;;;20.00;65.70;;;;;;5055840;28;20179;-78
2023/05/24 04:52:47;;;;;;;0.50;0.50;;;20.00;66.60;;;;;;5055333;28;20042;-78
2023/05/24 04:55:12;;;;;;;0.30;0.30;;;20.00;65.80;;;;;;5057314;28;20045;-78
2023/05/24 04:57:38;;;;;;;0.55;0.50;;;20.00;65.70;;;;;;5053009;28;20521;-78
2023/05/24 05:00:06;;;;;;;0.47;0.40;;;20.00;65.70;;;;;;5052688;28;20044;-77
2023/05/24 05:02:31;;;;;;;0.30;0.30;;;20.00;65.60;;;;;;5055433;28;20053;-77
2023/05/24 05:04:57;;;;;;;0.50;0.43;;;20.00;65.50;;;;;;5042514;28;20502;-81
2023/05/24 05:07:22;;;;;;;0.35;0.32;;;20.10;65.60;;;;;;5055245;28;20056;-79
2023/05/24 05:09:48;;;;;;;0.38;0.38;;;20.10;65.60;;;;;;5044790;28;20041;-78
2023/05/24 05:12:14;;;;;;;0.40;0.30;;;20.10;65.30;;;;;;5044071;28;20426;-79
2023/05/24 05:14:39;;;;;;;0.38;0.38;;;20.00;65.40;;;;;;5051150;28;20101;-79
2023/05/24 05:17:05;;;;;;;0.73;0.50;;;19.90;65.60;;;;;;5049517;28;20506;-79
2023/05/24 05:19:30;;;;;;;0.60;0.60;;;19.90;65.00;;;;;;5051606;28;20766;-78
2023/05/24 05:21:56;;;;;;;0.50;0.50;;;19.80;63.80;;;;;;5049807;28;20033;-79
2023/05/24 05:24:22;;;;;;;0.52;0.50;;;19.80;63.10;;;;;;5045003;28;20646;-79
2023/05/24 05:26:47;;;;;;;0.90;0.60;;;19.80;62.80;;;;;;5054484;28;20055;-79
2023/05/24 05:29:13;;;;;;;0.73;0.60;;;19.80;62.30;;;;;;5051363;28;20571;-79
2023/05/24 05:31:38;;;;;;;1.15;0.80;;;19.80;62.00;;;;;;5058703;28;20037;-79
2023/05/24 05:34:08;;;;;;;0.70;0.55;;;19.70;61.30;;;;;;5052705;28;20052;-79
2023/05/24 05:36:39;;;;;;;1.00;0.60;;;19.70;61.10;;;;;;5052009;28;20041;-79
2023/05/24 05:39:11;;;;;;;0.60;0.60;;;19.70;60.50;;;;;;5051782;28;20029;-78
2023/05/24 05:41:38;;;;;;;1.13;0.60;;;19.70;60.00;;;;;;5052884;28;20099;-79
2023/05/24 05:44:03;;;;;;;0.75;0.63;;;19.70;59.40;;;;;;5052967;28;20698;-79
2023/05/24 05:46:29;;;;;;;0.70;0.52;;;19.70;59.10;;;;;;5054070;28;20065;-79
2023/05/24 05:48:54;;;;;;;0.60;0.50;;;19.60;59.00;;;;;;5051598;28;20112;-79
2023/05/24 05:51:20;;;;;;;0.98;0.65;;;19.60;58.80;;;;;;5053386;28;20040;-79
2023/05/24 05:53:45;;;;;;;0.47;0.40;;;19.60;58.30;;;;;;5033138;28;20174;-79
2023/05/24 05:56:11;;;;;;;0.80;0.68;;;19.60;58.40;;;;;;5044808;28;20068;-79
2023/05/24 05:58:37;;;;;;;1.35;0.90;;;19.70;58.10;;;;;;5053506;28;20041;-79
2023/05/24 06:01:03;;;;;;;2.17;0.90;;;19.60;57.90;;;;;;5031477;28;20601;-79
2023/05/24 06:03:29;;;;;;;0.80;0.63;;;19.60;57.70;;;;;;5046388;28;20133;-79
2023/05/24 06:05:54;;;;;;;1.10;0.80;;;19.60;57.50;;;;;;5045975;28;20055;-79
2023/05/24 06:08:20;;;;;;;1.65;0.75;;;19.60;57.50;;;;;;5048952;28;20052;-79
2023/05/24 06:10:46;;;;;;;0.55;0.50;;;19.60;57.40;;;;;;5045000;28;20033;-78
2023/05/24 06:13:12;;;;;;;0.73;0.73;;;19.60;57.30;;;;;;5052631;28;20045;-78
2023/05/24 06:15:38;;;;;;;0.90;0.80;;;19.60;57.10;;;;;;5049851;28;20620;-79
2023/05/24 06:18:04;;;;;;;0.68;0.68;;;19.60;57.10;;;;;;5048537;28;20040;-79
2023/05/24 06:20:30;;;;;;;0.98;0.75;;;19.60;56.90;;;;;;5048344;28;20056;-79
2023/05/24 06:22:56;;;;;;;0.98;0.50;;;19.60;56.90;;;;;;5051820;28;20041;-78
2023/05/24 06:25:23;;;;;;;0.90;0.60;;;19.60;56.80;;;;;;5050906;28;20055;-79
2023/05/24 06:27:50;;;;;;;0.80;0.80;;;19.60;56.60;;;;;;5042836;28;20037;-79
2023/05/24 06:30:16;;;;;;;1.17;0.60;;;19.60;56.40;;;;;;5049900;28;20056;-78
2023/05/24 06:32:41;;;;;;;1.02;0.90;;;19.60;56.20;;;;;;5050723;28;20140;-79
2023/05/24 06:35:07;;;;;;;0.65;0.60;;;19.60;56.20;;;;;;5048415;28;20110;-79
2023/05/24 06:37:33;;;;;;;0.82;0.70;;;19.60;56.00;;;;;;5056412;28;20037;-79
2023/05/24 06:39:59;;;;;;;9.20;1.20;;;19.50;55.80;;;;;;5051615;28;20033;-79
2023/05/24 06:42:24;;;;;;;0.55;0.52;;;19.50;55.80;;;;;;5044273;28;20491;-78
2023/05/24 06:44:50;;;;;;;1.65;0.70;;;19.60;55.60;;;;;;5031044;28;20041;-79
2023/05/24 06:47:15;;;;;;;0.85;0.80;;;19.60;55.90;;;;;;5033593;28;20084;-79
2023/05/24 06:49:41;;;;;;;0.75;0.70;;;19.60;55.90;;;;;;5055010;28;20497;-79
2023/05/24 06:52:07;;;;;;;1.10;0.68;;;19.60;56.00;;;;;;5049321;28;20075;-79
2023/05/24 06:54:33;;;;;;;1.40;0.90;;;19.60;56.00;;;;;;5047345;28;20098;-79
2023/05/24 06:56:58;;;;;;;2.65;1.48;;;19.60;55.50;;;;;;5051495;28;20045;-79
2023/05/24 06:59:24;;;;;;;1.13;0.80;;;19.50;55.50;;;;;;5052828;28;20055;-79
2023/05/24 07:01:56;;;;;;;0.65;0.50;;;19.60;55.30;;;;;;5053070;28;20090;-78
2023/05/24 07:04:23;;;;;;;0.77;0.70;;;19.60;55.20;;;;;;5028281;28;20120;-79
2023/05/24 07:06:49;;;;;;;1.92;0.95;;;19.50;54.90;;;;;;5046982;28;20033;-79
2023/05/24 07:09:15;;;;;;;1.05;0.80;;;19.60;55.10;;;;;;5051615;28;20024;-79
2023/05/24 07:11:40;;;;;;;1.15;0.70;;;19.60;54.70;;;;;;5053530;28;20048;-79
2023/05/24 07:14:06;;;;;;;1.52;0.68;;;19.50;54.90;;;;;;5045239;28;20522;-79
2023/05/24 07:16:31;;;;;;;0.80;0.75;;;19.50;54.70;;;;;;5044781;28;20055;-79
2023/05/24 07:18:57;;;;;;;1.08;0.50;;;19.60;54.60;;;;;;5049033;28;20505;-79
2023/05/24 07:21:23;;;;;;;1.80;0.80;;;19.50;54.40;;;;;;5052894;28;20533;-78
2023/05/24 07:23:50;;;;;;;0.60;0.60;;;19.50;54.50;;;;;;5017363;28;20041;-78
2023/05/24 07:26:16;;;;;;;0.77;0.60;;;19.60;53.50;;;;;;5037195;28;20074;-77
2023/05/24 07:28:41;;;;;;;5.25;0.45;;;19.60;49.60;;;;;;5054952;28;20084;-76
2023/05/24 07:31:08;;;;;;;0.70;0.60;;;19.30;49.90;;;;;;5039960;28;20466;-78
2023/05/24 07:33:36;;;;;;;0.70;0.70;;;19.20;47.00;;;;;;5042147;28;20040;-78
2023/05/24 07:36:03;;;;;;;0.90;0.50;;;19.00;46.90;;;;;;5060092;28;20053;-78
2023/05/24 07:38:29;;;;;;;0.70;0.50;;;18.80;46.20;;;;;;5049778;28;20048;-79
2023/05/24 07:40:57;;;;;;;0.63;0.63;;;18.80;46.40;;;;;;5064298;28;20036;-79
2023/05/24 07:43:23;;;;;;;0.95;0.70;;;18.70;46.10;;;;;;5055680;28;20037;-79
2023/05/24 07:45:49;;;;;;;0.80;0.70;;;18.70;46.30;;;;;;5035960;28;20395;-78
2023/05/24 07:48:14;;;;;;;0.70;0.40;;;18.60;46.10;;;;;;5035991;28;20036;-80
2023/05/24 07:50:40;;;;;;;1.38;0.85;;;18.60;46.20;;;;;;5064432;28;20040;-79
2023/05/24 07:53:07;;;;;;;0.50;0.47;;;18.80;46.80;;;;;;4745183;28;10000851;-78
2023/05/24 07:55:32;;;;;;;2.05;0.57;;;18.70;45.80;;;;;;5048721;28;20241;-78
2023/05/24 07:57:58;;;;;;;0.90;0.60;;;18.70;45.60;;;;;;5049831;28;20098;-78
2023/05/24 08:00:24;;;;;;;1.13;0.73;;;18.80;46.50;;;;;;5035896;28;20040;-76
2023/05/24 08:02:49;;;;;;;0.75;0.57;;;18.90;47.10;;;;;;5038712;28;20048;-76
2023/05/24 08:05:18;;;;;;;2.90;0.85;;;18.90;47.50;;;;;;5041619;28;20043;-76
2023/05/24 08:07:44;;;;;;;0.80;0.60;;;19.00;46.90;;;;;;5049750;28;20053;-75
2023/05/24 08:10:12;;;;;;;2.75;0.65;;;18.90;46.90;;;;;;5013443;28;20459;-76
2023/05/24 08:12:38;;;;;;;0.50;0.40;;;19.00;46.90;;;;;;5024191;28;20063;-76
2023/05/24 08:15:04;;;;;;;1.90;0.55;;;19.10;47.60;;;;;;5032667;28;20041;-76
2023/05/24 08:17:30;;;;;;;0.98;0.40;;;19.20;46.70;;;;;;5045102;28;20046;-76
2023/05/24 08:19:56;;;;;;;0.65;0.65;;;19.10;46.80;;;;;;5048217;28;20644;-77
2023/05/24 08:22:21;;;;;;;1.65;0.82;;;19.10;46.90;;;;;;5022296;28;20041;-77
2023/05/24 08:24:47;;;;;;;0.70;0.70;;;19.10;47.70;;;;;;5049466;28;20086;-77
2023/05/24 08:27:13;;;;;;;1.35;0.70;;;19.20;47.40;;;;;;5051719;28;20059;-77
2023/05/24 08:29:39;;;;;;;1.13;0.50;;;19.10;46.80;;;;;;5053557;28;20049;-77
2023/05/24 08:32:08;;;;;;;0.73;0.50;;;19.10;46.60;;;;;;5051682;28;20051;-78
2023/05/24 08:34:35;;;;;;;1.55;0.82;;;19.10;46.60;;;;;;5037270;28;20051;-76
2023/05/24 08:37:01;;;;;;;0.75;0.52;;;19.20;46.70;;;;;;5066759;28;20071;-76
2023/05/24 08:39:26;;;;;;;2.80;1.23;;;19.10;46.80;;;;;;5055305;28;20155;-75
2023/05/24 08:41:52;;;;;;;1.17;0.70;;;19.20;46.50;;;;;;5052761;28;20925;-76
2023/05/24 08:44:18;;;;;;;0.75;0.57;;;19.10;46.80;;;;;;5033463;28;20110;-77
2023/05/24 08:46:43;;;;;;;0.80;0.80;;;19.20;46.30;;;;;;5025053;28;20041;-76
2023/05/24 08:49:11;;;;;;;0.60;0.50;;;19.20;47.20;;;;;;5049484;28;20045;-77
2023/05/24 08:51:37;;;;;;;0.77;0.60;;;19.20;46.80;;;;;;5064274;28;20119;-77
2023/05/24 08:54:03;;;;;;;1.00;0.70;;;19.20;46.20;;;;;;5052969;28;20040;-77
2023/05/24 08:56:28;;;;;;;1.85;0.68;;;19.20;46.40;;;;;;5039688;28;20617;-77
2023/05/24 08:58:54;;;;;;;1.27;0.60;;;19.20;46.40;;;;;;5040769;28;20044;-77
2023/05/24 09:01:20;;;;;;;0.73;0.73;;;19.20;46.00;;;;;;5048750;28;20049;-77
2023/05/24 09:03:46;;;;;;;0.60;0.60;;;19.30;46.40;;;;;;5047204;28;20047;-77
2023/05/24 09:06:12;;;;;;;0.60;0.50;;;19.30;47.40;;;;;;5044103;28;20135;-77
2023/05/24 09:08:38;;;;;;;0.63;0.63;;;19.40;47.00;;;;;;4997032;28;20052;-77
2023/05/24 09:11:03;;;;;;;0.75;0.60;;;19.40;47.30;;;;;;5044620;28;20049;-76
2023/05/24 09:13:30;;;;;;;0.65;0.65;;;19.50;47.70;;;;;;5052942;28;20061;-76
2023/05/24 09:15:57;;;;;;;0.70;0.60;;;19.50;47.80;;;;;;5031423;28;20033;-77
2023/05/24 09:18:23;;;;;;;0.52;0.52;;;19.50;47.60;;;;;;5031241;28;20040;-77
2023/05/24 09:20:48;;;;;;;0.70;0.57;;;19.60;47.80;;;;;;5049383;28;20184;-77
2023/05/24 09:23:14;;;;;;;0.50;0.50;;;19.60;47.30;;;;;;5045698;28;20040;-79
2023/05/24 09:25:43;;;;;;;0.82;0.40;;;19.60;47.70;;;;;;5047074;28;20417;-78
2023/05/24 09:28:10;;;;;;;0.50;0.45;;;19.70;47.60;;;;;;5045747;28;20031;-77
2023/05/24 09:30:36;;;;;;;0.52;0.52;;;19.70;48.10;;;;;;5046629;28;20534;-76
2023/05/24 09:33:04;;;;;;;0.40;0.40;;;19.70;48.10;;;;;;5050273;28;20036;-77
2023/05/24 09:35:30;;;;;;;0.63;0.50;;;19.80;48.30;;;;;;5035514;28;20032;-77
2023/05/24 09:37:56;;;;;;;1.42;0.60;;;19.80;48.60;;;;;;5049615;28;20021;-78
2023/05/24 09:40:22;;;;;;;0.60;0.50;;;19.80;48.70;;;;;;5032377;28;20029;-78
2023/05/24 09:42:50;;;;;;;0.32;0.32;;;19.80;48.70;;;;;;5046736;28;20418;-77
2023/05/24 09:45:16;;;;;;;0.82;0.52;;;19.80;49.10;;;;;;5040569;28;20371;-78
2023/05/24 09:47:43;;;;;;;0.40;0.40;;;19.90;49.30;;;;;;5040440;28;20036;-78
2023/05/24 09:50:13;;;;;;;0.80;0.40;;;19.90;49.50;;;;;;5036166;28;20025;-79
2023/05/24 09:52:39;;;;;;;0.50;0.50;;;20.00;49.80;;;;;;5052888;28;20052;-78
2023/05/24 09:55:18;;;;;;;0.55;0.50;;;20.00;49.90;;;;;;5057012;28;20032;-78
2023/05/24 09:57:52;;;;;;;0.60;0.60;;;20.00;49.20;;;;;;5049656;28;20803;-77
2023/05/24 10:00:22;;;;;;;0.52;0.50;;;20.00;49.10;;;;;;5035065;28;20029;-78
2023/05/24 10:02:59;;;;;;;1.17;0.45;;;20.00;48.60;;;;;;5048538;28;20338;-78
2023/05/24 10:05:25;;;;;;;0.50;0.40;;;20.10;48.50;;;;;;5052118;28;20509;-76
2023/05/24 10:07:51;;;;;;;1.00;0.70;;;20.10;49.00;;;;;;5034238;28;20040;-77
2023/05/24 10:10:16;;;;;;;0.90;0.50;;;20.10;47.90;;;;;;5033875;28;20510;-77
2023/05/24 10:12:45;;;;;;;0.50;0.40;;;20.00;47.60;;;;;;5031155;28;20521;-77
2023/05/24 10:15:11;;;;;;;0.75;0.60;;;20.00;46.50;;;;;;5049039;28;20111;-77
2023/05/24 10:17:36;;;;;;;1.30;0.50;;;20.00;47.00;;;;;;5046873;28;20056;-76
2023/05/24 10:20:05;;;;;;;0.32;0.30;;;20.10;46.90;;;;;;5049616;28;20034;-78
2023/05/24 10:22:31;;;;;;;0.40;0.40;;;20.00;45.60;;;;;;5052141;28;20090;-78
2023/05/24 10:24:58;;;;;;;0.50;0.50;;;20.10;48.10;;;;;;5029743;28;20025;-77
2023/05/24 10:27:24;;;;;;;0.45;0.40;;;20.10;48.20;;;;;;5046287;28;20363;-78
2023/05/24 10:29:58;;;;;;;1.00;0.68;;;20.20;48.50;;;;;;5033133;28;20154;-78
2023/05/24 10:32:24;;;;;;;0.70;0.70;;;20.20;47.10;;;;;;5041069;28;20046;-78
2023/05/24 10:34:50;;;;;;;0.60;0.60;;;20.20;46.50;;;;;;5034304;28;20109;-78
2023/05/24 10:37:18;;;;;;;0.40;0.40;;;20.20;46.80;;;;;;5033341;28;20025;-78
2023/05/24 10:39:44;;;;;;;0.73;0.70;;;20.20;46.30;;;;;;5052358;28;20040;-79
2023/05/24 10:42:09;;;;;;;0.40;0.40;;;20.20;46.10;;;;;;5050215;28;20029;-78
2023/05/24 10:44:36;;;;;;;0.95;0.50;;;20.30;45.90;;;;;;5031929;28;20033;-78
2023/05/24 10:47:09;;;;;;;0.90;0.90;;;20.30;45.70;;;;;;5049351;28;20025;-78
2023/05/24 10:49:35;;;;;;;0.60;0.60;;;20.30;45.80;;;;;;5049658;28;20025;-77
2023/05/24 10:52:05;;;;;;;0.63;0.50;;;20.40;46.00;;;;;;4696120;28;10000010;-78
2023/05/24 10:54:31;;;;;;;0.70;0.60;;;20.40;46.10;;;;;;5041123;28;20048;-78
2023/05/24 10:57:01;;;;;;;0.40;0.40;;;20.40;46.50;;;;;;5043798;28;20052;-78
2023/05/24 10:59:36;;;;;;;0.40;0.40;;;20.40;46.80;;;;;;5051195;28;20064;-78
2023/05/24 11:02:02;;;;;;;1.00;0.50;;;20.40;46.80;;;;;;5050086;28;20068;-78
2023/05/24 11:04:32;;;;;;;0.85;0.43;;;20.40;46.70;;;;;;5015175;28;20242;-78
2023/05/24 11:07:02;;;;;;;0.90;0.50;;;20.40;46.90;;;;;;5048456;28;20049;-78
2023/05/24 11:09:28;;;;;;;0.50;0.50;;;20.40;46.70;;;;;;5044454;28;20045;-78
2023/05/24 11:11:55;;;;;;;1.55;0.50;;;20.40;46.80;;;;;;5027016;28;20433;-78
2023/05/24 11:14:27;;;;;;;0.40;0.40;;;20.40;46.60;;;;;;5042220;28;20045;-78
2023/05/24 11:16:53;;;;;;;0.45;0.45;;;20.50;46.50;;;;;;5061642;28;20045;-78
2023/05/24 11:19:31;;;;;;;0.55;0.55;;;20.40;46.30;;;;;;5048519;28;20040;-78
2023/05/24 11:21:57;;;;;;;0.55;0.47;;;20.40;46.50;;;;;;5034146;28;20419;-78
2023/05/24 11:24:24;;;;;;;1.08;1.00;;;20.50;46.50;;;;;;5047358;28;20044;-77
2023/05/24 11:26:50;;;;;;;0.60;0.60;;;20.50;46.50;;;;;;5044008;28;20044;-79
2023/05/24 11:29:21;;;;;;;0.50;0.50;;;20.50;46.50;;;;;;5055382;28;20041;-79
2023/05/24 11:32:03;;;;;;;1.23;0.50;;;20.50;47.40;;;;;;5041623;28;20831;-81
2023/05/24 11:34:29;;;;;;;0.70;0.70;;;20.50;47.90;;;;;;5041669;28;20049;-79
2023/05/24 11:36:55;;;;;;;0.70;0.70;;;20.50;48.50;;;;;;5047583;28;20037;-78
2023/05/24 11:39:20;;;;;;;0.60;0.60;;;20.50;48.70;;;;;;5030347;28;20059;-79
2023/05/24 11:41:47;;;;;;;0.65;0.63;;;20.50;49.30;;;;;;5029295;28;20132;-78
2023/05/24 11:44:17;;;;;;;0.50;0.50;;;20.50;49.50;;;;;;5047209;28;20140;-78
2023/05/24 11:46:42;;;;;;;0.50;0.50;;;20.50;50.00;;;;;;5047875;28;20649;-79
2023/05/24 11:49:12;;;;;;;0.50;0.50;;;20.50;50.20;;;;;;5034638;28;20147;-79
2023/05/24 11:51:37;;;;;;;1.30;0.40;;;20.50;50.40;;;;;;5048925;28;20553;-79
2023/05/24 11:54:03;;;;;;;0.60;0.60;;;20.50;50.70;;;;;;5045814;28;20344;-79
2023/05/24 11:56:29;;;;;;;0.50;0.50;;;20.50;51.00;;;;;;5044104;28;20612;-79
2023/05/24 11:59:14;;;;;;;0.50;0.50;;;20.60;51.30;;;;;;5045257;28;20174;-78
2023/05/24 12:01:40;;;;;;;0.45;0.45;;;20.60;51.60;;;;;;5051994;28;20406;-78
2023/05/24 12:04:08;;;;;;;0.70;0.70;;;20.60;51.90;;;;;;5029361;28;20079;-79
2023/05/24 12:06:35;;;;;;;0.38;0.32;;;20.60;52.10;;;;;;5045385;28;20103;-79
2023/05/24 12:09:01;;;;;;;0.40;0.40;;;20.60;52.30;;;;;;5041317;28;20513;-77
2023/05/24 12:11:27;;;;;;;0.63;0.40;;;20.60;52.40;;;;;;5043743;28;20048;-79
2023/05/24 12:13:52;;;;;;;0.40;0.40;;;20.60;52.60;;;;;;5014514;28;20497;-79
2023/05/24 12:16:18;;;;;;;1.02;0.60;;;20.60;52.90;;;;;;5031600;28;20047;-79
2023/05/24 12:18:44;;;;;;;0.60;0.60;;;20.60;53.00;;;;;;5042241;28;21360;-78
2023/05/24 12:21:10;;;;;;;0.40;0.40;;;20.60;53.10;;;;;;5042130;28;20050;-79
2023/05/24 12:23:36;;;;;;;0.52;0.52;;;20.60;53.30;;;;;;5044865;28;20044;-79
2023/05/24 12:26:02;;;;;;;0.43;0.40;;;20.60;54.10;;;;;;5041316;28;20049;-79
2023/05/24 12:28:34;;;;;;;0.50;0.50;;;20.60;53.50;;;;;;5043832;28;20049;-79
2023/05/24 12:31:01;;;;;;;0.45;0.45;;;20.60;53.70;;;;;;5047560;28;20048;-78
2023/05/24 12:33:27;;;;;;;0.50;0.50;;;20.60;53.80;;;;;;5029638;28;20047;-79
2023/05/24 12:35:52;;;;;;;0.38;0.38;;;20.60;53.90;;;;;;5030171;28;20032;-80
2023/05/24 12:38:23;;;;;;;0.60;0.60;;;20.70;54.00;;;;;;5049638;28;20473;-78
2023/05/24 12:40:49;;;;;;;0.55;0.55;;;20.60;54.00;;;;;;5016106;28;20935;-77
2023/05/24 12:43:15;;;;;;;0.38;0.38;;;20.60;54.20;;;;;;5063071;28;20049;-77